Time;durP1;ratioP1;P1;durP2;ratioP2;P2;SDS_P1;SDS_P2;PMS_P1;PMS_P2;Temp;Humidity;BMP_temperature;BMP_pressure;BME280_temperature;BME280_humidity;BME280_pressure;Samples;Min_cycle;Max_cycle;Signal;HPM_P1;HPM_P2
2023/03/19 00:00:16;;;;;;;10.73;9.00;;;10.70;99.90;;;;;;5051868;28;20577;-74
2023/03/19 00:02:48;;;;;;;11.93;9.07;;;10.70;99.90;;;;;;5053044;28;20051;-74
2023/03/19 00:05:14;;;;;;;11.80;8.75;;;10.60;99.90;;;;;;5052767;28;20056;-75
2023/03/19 00:07:40;;;;;;;11.60;8.73;;;10.60;99.90;;;;;;5052931;28;20532;-74
2023/03/19 00:10:06;;;;;;;10.77;8.80;;;10.60;99.90;;;;;;5052649;28;20178;-74
2023/03/19 00:12:31;;;;;;;10.88;8.60;;;10.60;99.90;;;;;;5018145;28;20481;-74
2023/03/19 00:14:57;;;;;;;10.85;8.68;;;10.60;99.90;;;;;;5018610;28;20063;-74
2023/03/19 00:17:23;;;;;;;10.68;8.20;;;10.60;99.90;;;;;;5035015;28;20073;-74
2023/03/19 00:19:48;;;;;;;11.05;8.77;;;10.70;99.90;;;;;;5052661;28;20053;-75
2023/03/19 00:22:14;;;;;;;10.63;8.35;;;10.60;99.90;;;;;;5052195;28;20389;-74
2023/03/19 00:24:40;;;;;;;11.95;9.35;;;10.60;99.90;;;;;;5001451;28;20059;-74
2023/03/19 00:27:05;;;;;;;12.77;8.65;;;10.60;99.90;;;;;;5018375;28;20049;-75
2023/03/19 00:29:31;;;;;;;10.82;8.73;;;10.60;99.90;;;;;;5034571;28;20122;-74
2023/03/19 00:31:57;;;;;;;11.23;9.02;;;10.60;99.90;;;;;;5052110;28;20110;-74
2023/03/19 00:34:23;;;;;;;12.20;9.35;;;10.60;99.90;;;;;;5034381;28;20053;-75
2023/03/19 00:36:48;;;;;;;11.75;8.55;;;10.60;99.90;;;;;;5052528;28;20093;-74
2023/03/19 00:39:14;;;;;;;10.68;9.02;;;10.60;99.90;;;;;;5034366;28;20116;-74
2023/03/19 00:41:40;;;;;;;13.48;9.10;;;10.60;99.90;;;;;;5034182;28;20048;-74
2023/03/19 00:44:06;;;;;;;11.00;8.85;;;10.70;99.90;;;;;;5052352;28;20525;-74
2023/03/19 00:46:33;;;;;;;11.20;8.88;;;10.60;99.90;;;;;;5034073;28;20106;-74
2023/03/19 00:48:59;;;;;;;13.57;9.73;;;10.60;99.90;;;;;;5001642;28;20060;-74
2023/03/19 00:51:24;;;;;;;12.40;9.18;;;10.60;99.90;;;;;;5051933;28;20048;-74
2023/03/19 00:53:51;;;;;;;11.73;8.88;;;10.70;99.90;;;;;;5032781;28;20449;-74
2023/03/19 00:56:17;;;;;;;11.38;9.05;;;10.70;99.90;;;;;;5034000;28;20052;-74
2023/03/19 00:58:44;;;;;;;11.00;8.38;;;10.60;99.90;;;;;;5051888;28;20124;-74
2023/03/19 01:01:11;;;;;;;11.70;8.63;;;10.60;99.90;;;;;;5034092;28;20061;-74
2023/03/19 01:03:37;;;;;;;12.40;8.98;;;10.60;99.90;;;;;;5051869;28;20056;-74
2023/03/19 01:06:04;;;;;;;10.80;8.40;;;10.60;99.90;;;;;;5033896;28;20132;-74
2023/03/19 01:08:30;;;;;;;9.98;8.45;;;10.60;99.90;;;;;;5034074;28;20057;-75
2023/03/19 01:10:56;;;;;;;12.30;8.57;;;10.70;99.90;;;;;;5051707;28;20565;-74
2023/03/19 01:13:22;;;;;;;12.02;8.52;;;10.60;99.90;;;;;;5051415;28;20443;-74
2023/03/19 01:15:52;;;;;;;10.77;8.18;;;10.70;99.90;;;;;;5051537;28;20053;-75
2023/03/19 01:18:17;;;;;;;11.05;8.50;;;10.70;99.90;;;;;;5033847;28;20048;-74
2023/03/19 01:20:43;;;;;;;11.55;8.50;;;10.70;99.90;;;;;;5033874;28;20122;-74
2023/03/19 01:23:09;;;;;;;11.63;8.68;;;10.70;99.90;;;;;;5017099;28;20401;-74
2023/03/19 01:25:35;;;;;;;11.38;8.82;;;10.70;99.90;;;;;;5000614;28;20482;-75
2023/03/19 01:28:01;;;;;;;11.00;9.00;;;10.60;99.90;;;;;;5033694;28;20087;-74
2023/03/19 01:30:27;;;;;;;12.35;9.52;;;10.70;99.90;;;;;;5033697;28;20190;-74
2023/03/19 01:32:52;;;;;;;11.48;8.85;;;10.60;99.90;;;;;;5051171;28;20049;-74
2023/03/19 01:35:18;;;;;;;11.18;8.80;;;10.60;99.90;;;;;;5033618;28;20044;-74
2023/03/19 01:37:44;;;;;;;11.20;8.00;;;10.70;99.90;;;;;;5051126;28;20048;-73
2023/03/19 01:40:12;;;;;;;11.57;8.77;;;10.70;99.90;;;;;;5050253;28;20132;-74
2023/03/19 01:42:56;;;;;;;11.75;9.05;;;10.70;99.90;;;;;;5051162;28;20498;-74
2023/03/19 01:45:37;;;;;;;12.00;9.13;;;10.70;99.90;;;;;;5051086;28;20053;-74
2023/03/19 01:48:04;;;;;;;10.98;9.23;;;10.70;99.90;;;;;;5051248;28;20053;-74
2023/03/19 01:50:43;;;;;;;11.20;9.18;;;10.70;99.90;;;;;;5053380;28;20088;-74
2023/03/19 01:53:11;;;;;;;11.18;8.88;;;10.70;99.90;;;;;;5053088;28;20071;-73
2023/03/19 01:55:37;;;;;;;12.35;8.57;;;10.70;99.90;;;;;;5050718;28;20139;-74
2023/03/19 01:58:05;;;;;;;12.48;8.77;;;10.70;99.90;;;;;;5051021;28;20056;-73
2023/03/19 02:00:33;;;;;;;11.02;8.02;;;10.70;99.90;;;;;;5033443;28;20082;-73
2023/03/19 02:03:01;;;;;;;10.48;7.82;;;10.70;99.90;;;;;;5053692;28;20047;-74
2023/03/19 02:05:27;;;;;;;10.60;7.97;;;10.70;99.90;;;;;;5037535;28;20444;-74
2023/03/19 02:07:58;;;;;;;10.13;8.07;;;10.70;99.90;;;;;;5054970;28;20044;-74
2023/03/19 02:10:25;;;;;;;9.38;7.50;;;10.60;99.90;;;;;;5055178;28;20087;-73
2023/03/19 02:12:50;;;;;;;10.07;7.82;;;10.60;99.90;;;;;;5054966;28;20041;-73
2023/03/19 02:15:17;;;;;;;11.60;8.18;;;10.60;99.90;;;;;;5037135;28;20093;-73
2023/03/19 02:17:42;;;;;;;10.77;7.75;;;10.60;99.90;;;;;;5020787;28;20440;-73
2023/03/19 02:20:17;;;;;;;11.00;7.95;;;10.60;99.90;;;;;;5054689;28;20052;-74
2023/03/19 02:22:53;;;;;;;10.77;8.23;;;10.60;99.90;;;;;;5053874;28;20051;-73
2023/03/19 02:25:29;;;;;;;9.18;7.35;;;10.50;99.90;;;;;;5036046;28;20082;-73
2023/03/19 02:27:56;;;;;;;12.25;8.57;;;10.60;99.90;;;;;;5037189;28;20049;-73
2023/03/19 02:30:33;;;;;;;10.45;7.45;;;10.60;99.90;;;;;;5037200;28;20688;-73
2023/03/19 02:32:58;;;;;;;10.70;7.72;;;10.50;99.90;;;;;;5036765;28;20048;-73
2023/03/19 02:35:29;;;;;;;9.98;7.47;;;10.50;99.90;;;;;;5036808;28;20045;-73
2023/03/19 02:37:54;;;;;;;11.20;8.00;;;10.40;99.90;;;;;;5036937;28;20375;-73
2023/03/19 02:40:34;;;;;;;10.05;7.15;;;10.40;99.90;;;;;;5020442;28;20048;-73
2023/03/19 02:43:00;;;;;;;8.70;6.75;;;10.40;99.90;;;;;;5054574;28;20045;-73
2023/03/19 02:45:30;;;;;;;8.15;6.35;;;10.30;99.90;;;;;;5036343;28;20151;-74
2023/03/19 02:47:56;;;;;;;7.85;5.47;;;10.30;99.90;;;;;;5020436;28;20144;-73
2023/03/19 02:50:22;;;;;;;7.63;6.32;;;10.30;99.90;;;;;;5054444;28;20270;-73
2023/03/19 02:52:48;;;;;;;8.02;6.13;;;10.30;99.90;;;;;;5054342;28;20045;-73
2023/03/19 02:55:17;;;;;;;8.52;6.20;;;10.20;99.90;;;;;;5053644;28;20158;-73
2023/03/19 02:57:43;;;;;;;8.20;5.82;;;10.10;99.90;;;;;;5054019;28;20387;-73
2023/03/19 03:00:10;;;;;;;7.68;5.72;;;10.10;99.90;;;;;;5054259;28;20059;-73
2023/03/19 03:02:37;;;;;;;7.78;5.95;;;10.10;99.90;;;;;;5054174;28;20060;-73
2023/03/19 03:05:05;;;;;;;7.35;5.65;;;10.00;99.90;;;;;;5054032;28;20127;-73
2023/03/19 03:07:31;;;;;;;7.68;5.32;;;10.00;99.90;;;;;;5036326;28;20049;-73
2023/03/19 03:09:57;;;;;;;7.88;5.97;;;10.00;99.90;;;;;;5053761;28;20059;-73
2023/03/19 03:12:23;;;;;;;7.30;5.10;;;10.10;99.90;;;;;;5053539;28;20060;-73
2023/03/19 03:14:49;;;;;;;8.32;5.47;;;10.00;99.90;;;;;;5052350;28;20045;-73
2023/03/19 03:17:14;;;;;;;6.57;5.30;;;10.00;99.90;;;;;;5053926;28;20136;-73
2023/03/19 03:19:40;;;;;;;8.18;5.32;;;10.00;99.90;;;;;;5053761;28;20052;-73
2023/03/19 03:22:07;;;;;;;6.80;4.93;;;10.10;99.90;;;;;;5053869;28;20044;-73
2023/03/19 03:24:33;;;;;;;6.80;4.82;;;10.10;99.90;;;;;;5053071;28;20059;-73
2023/03/19 03:26:58;;;;;;;7.65;4.93;;;10.10;99.90;;;;;;5053597;28;20052;-73
2023/03/19 03:29:24;;;;;;;6.60;4.88;;;10.10;99.90;;;;;;5053522;28;20044;-73
2023/03/19 03:31:50;;;;;;;4.63;3.65;;;10.10;99.90;;;;;;5035674;28;20048;-73
2023/03/19 03:34:17;;;;;;;5.32;3.78;;;10.10;99.90;;;;;;5019093;28;20040;-74
2023/03/19 03:36:43;;;;;;;6.40;4.20;;;10.10;99.90;;;;;;5053449;28;20535;-73
2023/03/19 03:39:09;;;;;;;5.28;3.90;;;10.10;99.90;;;;;;5035584;28;20075;-72
2023/03/19 03:41:35;;;;;;;5.72;4.05;;;10.10;99.90;;;;;;5053041;28;20510;-73
2023/03/19 03:44:01;;;;;;;4.60;3.90;;;10.10;99.90;;;;;;5053294;28;20049;-73
2023/03/19 03:46:26;;;;;;;5.15;3.33;;;10.10;99.90;;;;;;5051922;28;20041;-73
2023/03/19 03:48:52;;;;;;;6.07;3.88;;;10.10;99.90;;;;;;5053210;28;20045;-73
2023/03/19 03:51:19;;;;;;;6.22;3.85;;;10.00;99.90;;;;;;5035505;28;20051;-72
2023/03/19 03:53:45;;;;;;;5.88;3.83;;;10.00;99.90;;;;;;5034631;28;20051;-73
2023/03/19 03:56:10;;;;;;;4.30;3.20;;;10.00;99.90;;;;;;5035352;28;20049;-73
2023/03/19 03:58:36;;;;;;;4.65;3.40;;;9.90;99.90;;;;;;5035330;28;20056;-73
2023/03/19 04:01:02;;;;;;;3.78;2.95;;;9.90;99.90;;;;;;5052083;28;20045;-73
2023/03/19 04:03:28;;;;;;;5.55;2.90;;;9.90;99.90;;;;;;5035307;28;20052;-73
2023/03/19 04:05:54;;;;;;;4.43;3.28;;;9.90;99.90;;;;;;5053014;28;20048;-73
2023/03/19 04:08:20;;;;;;;4.28;3.20;;;9.90;99.90;;;;;;5052909;28;20049;-73
2023/03/19 04:10:46;;;;;;;3.97;2.90;;;9.80;99.90;;;;;;5034975;28;20052;-73
2023/03/19 04:13:12;;;;;;;4.75;3.13;;;9.80;99.90;;;;;;5052426;28;20394;-73
2023/03/19 04:15:40;;;;;;;3.60;2.67;;;9.80;99.90;;;;;;5034982;28;20121;-73
2023/03/19 04:18:06;;;;;;;3.80;2.80;;;9.80;99.90;;;;;;5052644;28;20102;-73
2023/03/19 04:20:32;;;;;;;4.47;2.75;;;9.80;99.90;;;;;;5052711;28;20486;-73
2023/03/19 04:22:57;;;;;;;3.78;2.75;;;9.70;99.90;;;;;;5051608;28;20084;-72
2023/03/19 04:25:23;;;;;;;3.78;2.90;;;9.70;99.90;;;;;;5050690;28;20045;-72
2023/03/19 04:27:49;;;;;;;4.93;2.85;;;9.70;99.90;;;;;;5034810;28;20072;-72
2023/03/19 04:30:15;;;;;;;4.00;2.70;;;9.80;99.90;;;;;;5034602;28;20044;-72
2023/03/19 04:32:43;;;;;;;4.05;2.58;;;9.80;99.90;;;;;;5034708;28;20057;-72
2023/03/19 04:35:08;;;;;;;4.97;2.90;;;9.90;99.90;;;;;;5052326;28;20057;-72
2023/03/19 04:37:34;;;;;;;3.97;2.60;;;9.90;99.90;;;;;;5051157;28;20041;-72
2023/03/19 04:40:00;;;;;;;3.35;2.42;;;10.00;99.90;;;;;;5018201;28;20461;-72
2023/03/19 04:42:26;;;;;;;4.43;2.97;;;10.00;99.90;;;;;;5051752;28;20049;-72
2023/03/19 04:44:52;;;;;;;4.30;2.30;;;10.00;99.90;;;;;;5052110;28;20482;-72
2023/03/19 04:47:18;;;;;;;3.45;2.55;;;10.00;99.90;;;;;;5017772;28;20057;-72
2023/03/19 04:49:43;;;;;;;5.10;2.60;;;10.00;99.90;;;;;;5052097;28;20044;-72
2023/03/19 04:52:09;;;;;;;3.30;2.50;;;10.00;99.90;;;;;;5017943;28;20389;-72
2023/03/19 04:54:35;;;;;;;3.75;2.30;;;10.00;99.90;;;;;;5033462;28;20067;-72
2023/03/19 04:57:01;;;;;;;3.63;2.80;;;10.00;99.90;;;;;;5034097;28;20088;-72
2023/03/19 04:59:26;;;;;;;3.88;2.85;;;10.00;99.90;;;;;;5033904;28;20052;-72
2023/03/19 05:01:52;;;;;;;3.72;2.63;;;10.00;99.90;;;;;;5051811;28;20060;-72
2023/03/19 05:04:18;;;;;;;3.70;2.70;;;10.00;99.90;;;;;;5033651;28;20044;-72
2023/03/19 05:06:44;;;;;;;3.90;2.60;;;10.00;99.90;;;;;;5051561;28;20041;-72
2023/03/19 05:09:09;;;;;;;3.88;2.70;;;10.00;99.90;;;;;;5017524;28;20060;-72
2023/03/19 05:11:35;;;;;;;3.85;2.75;;;9.90;99.90;;;;;;5051962;28;20465;-73
2023/03/19 05:14:01;;;;;;;3.72;2.78;;;9.90;99.90;;;;;;5033673;28;20044;-72
2023/03/19 05:16:26;;;;;;;4.40;3.13;;;9.90;99.90;;;;;;5033614;28;20049;-72
2023/03/19 05:18:52;;;;;;;4.60;3.00;;;9.90;99.90;;;;;;5051288;28;20049;-72
2023/03/19 05:21:18;;;;;;;3.88;2.90;;;9.90;99.90;;;;;;5033936;28;20045;-72
2023/03/19 05:23:44;;;;;;;3.47;2.60;;;9.90;99.90;;;;;;5051097;28;20125;-72
2023/03/19 05:26:10;;;;;;;4.03;2.88;;;9.90;99.90;;;;;;5050108;28;20671;-72
2023/03/19 05:28:36;;;;;;;5.78;3.35;;;9.80;99.90;;;;;;5051443;28;20059;-72
2023/03/19 05:31:03;;;;;;;4.47;3.72;;;9.80;99.90;;;;;;5033504;28;20044;-72
2023/03/19 05:33:29;;;;;;;5.15;3.33;;;9.90;99.90;;;;;;5033224;28;20558;-72
2023/03/19 05:35:55;;;;;;;4.18;3.13;;;9.80;99.90;;;;;;5033213;28;20109;-72
2023/03/19 05:38:21;;;;;;;5.45;3.63;;;9.80;99.90;;;;;;5050906;28;20056;-72
2023/03/19 05:40:46;;;;;;;4.00;3.10;;;9.80;99.90;;;;;;5051428;28;20057;-72
2023/03/19 05:43:12;;;;;;;4.57;3.35;;;9.80;99.90;;;;;;5033419;28;20474;-72
2023/03/19 05:45:39;;;;;;;4.05;2.92;;;9.80;99.90;;;;;;5051123;28;20091;-72
2023/03/19 05:48:04;;;;;;;4.75;3.03;;;9.80;99.90;;;;;;5032669;28;20045;-72
2023/03/19 05:50:31;;;;;;;4.30;3.30;;;9.80;99.90;;;;;;5016871;28;20107;-72
2023/03/19 05:52:57;;;;;;;5.35;3.25;;;9.80;99.90;;;;;;5033247;28;20084;-72
2023/03/19 05:55:24;;;;;;;4.05;3.65;;;9.80;99.90;;;;;;5050514;28;20726;-72
2023/03/19 05:57:49;;;;;;;4.40;3.50;;;9.80;99.90;;;;;;5050579;28;20509;-72
2023/03/19 06:00:16;;;;;;;5.07;3.78;;;9.80;99.90;;;;;;5050852;28;20059;-72
2023/03/19 06:02:42;;;;;;;4.97;3.33;;;9.80;99.90;;;;;;5033319;28;20107;-72
2023/03/19 06:05:09;;;;;;;5.07;3.78;;;9.90;99.90;;;;;;5050921;28;20045;-72
2023/03/19 06:07:35;;;;;;;5.55;3.67;;;9.90;99.90;;;;;;5050911;28;20041;-72
2023/03/19 06:10:02;;;;;;;4.47;3.30;;;9.80;99.90;;;;;;5033175;28;20508;-72
2023/03/19 06:12:27;;;;;;;5.32;3.55;;;9.80;99.90;;;;;;5051424;28;20128;-72
2023/03/19 06:14:53;;;;;;;4.72;3.38;;;9.80;99.90;;;;;;5051582;28;20203;-71
2023/03/19 06:17:19;;;;;;;4.75;3.28;;;9.80;99.90;;;;;;5051342;28;20053;-72
2023/03/19 06:19:45;;;;;;;4.50;3.40;;;9.70;99.90;;;;;;5050957;28;20136;-72
2023/03/19 06:22:11;;;;;;;6.15;3.58;;;9.70;99.90;;;;;;5033284;28;20063;-72
2023/03/19 06:24:37;;;;;;;4.97;3.70;;;9.70;99.90;;;;;;5049414;28;20132;-72
2023/03/19 06:27:02;;;;;;;4.82;3.35;;;9.70;99.90;;;;;;5016526;28;20159;-72
2023/03/19 06:29:28;;;;;;;5.85;3.67;;;9.70;99.90;;;;;;5050635;28;20063;-73
2023/03/19 06:31:54;;;;;;;5.57;3.72;;;9.70;99.90;;;;;;5032973;28;20049;-72
2023/03/19 06:34:20;;;;;;;6.07;3.80;;;9.70;99.90;;;;;;5050899;28;20048;-72
2023/03/19 06:36:46;;;;;;;6.50;4.18;;;9.80;99.90;;;;;;5050457;28;20057;-72
2023/03/19 06:39:11;;;;;;;6.43;3.58;;;9.70;99.90;;;;;;5032545;28;20049;-72
2023/03/19 06:41:37;;;;;;;6.85;4.22;;;9.80;99.90;;;;;;5050642;28;20053;-73
2023/03/19 06:44:03;;;;;;;7.18;4.15;;;9.80;99.90;;;;;;5016646;28;20384;-73
2023/03/19 06:46:29;;;;;;;6.45;3.78;;;9.90;99.90;;;;;;5050934;28;20520;-73
2023/03/19 06:48:56;;;;;;;5.25;4.00;;;9.90;99.90;;;;;;5018958;28;20081;-72
2023/03/19 06:51:21;;;;;;;4.85;3.75;;;9.90;99.90;;;;;;5036497;28;20106;-73
2023/03/19 06:53:47;;;;;;;6.03;4.30;;;10.00;99.90;;;;;;5053471;28;20041;-72
2023/03/19 06:56:13;;;;;;;5.97;4.25;;;10.00;99.90;;;;;;5054195;28;20122;-72
2023/03/19 06:58:39;;;;;;;6.22;4.18;;;10.00;99.90;;;;;;5054224;28;20091;-72
2023/03/19 07:01:04;;;;;;;5.57;4.38;;;10.10;99.90;;;;;;5036189;28;20498;-72
2023/03/19 07:03:30;;;;;;;5.68;4.45;;;10.10;99.90;;;;;;5054086;28;20056;-72
2023/03/19 07:05:56;;;;;;;5.90;4.22;;;10.10;99.90;;;;;;5052936;28;20076;-72
2023/03/19 07:08:22;;;;;;;5.82;4.18;;;10.20;99.90;;;;;;5053909;28;20079;-73
2023/03/19 07:10:47;;;;;;;6.03;4.35;;;10.20;99.90;;;;;;5036114;28;20157;-73
2023/03/19 07:13:13;;;;;;;5.50;4.70;;;10.20;99.90;;;;;;5035767;28;20131;-73
2023/03/19 07:15:39;;;;;;;6.35;4.72;;;10.20;99.90;;;;;;5035747;28;20045;-72
2023/03/19 07:18:05;;;;;;;6.32;5.03;;;10.20;99.90;;;;;;5035986;28;20053;-73
2023/03/19 07:20:31;;;;;;;10.55;4.95;;;10.30;99.90;;;;;;5036025;28;20049;-72
2023/03/19 07:22:56;;;;;;;6.50;5.10;;;10.30;99.90;;;;;;5036016;28;20556;-73
2023/03/19 07:25:22;;;;;;;6.65;5.13;;;10.30;99.90;;;;;;5053372;28;20107;-73
2023/03/19 07:27:48;;;;;;;7.18;5.18;;;10.30;99.90;;;;;;5035734;28;20653;-72
2023/03/19 07:30:15;;;;;;;6.57;4.85;;;10.20;99.90;;;;;;5053633;28;20129;-72
2023/03/19 07:32:41;;;;;;;6.95;5.38;;;10.30;99.90;;;;;;5053514;28;20048;-73
2023/03/19 07:35:09;;;;;;;6.65;5.28;;;10.20;99.90;;;;;;5035657;28;20053;-72
2023/03/19 07:37:35;;;;;;;7.85;5.80;;;10.20;99.90;;;;;;5035218;28;20528;-73
2023/03/19 07:40:01;;;;;;;7.63;5.03;;;10.10;99.90;;;;;;5052961;28;20494;-73
2023/03/19 07:42:27;;;;;;;7.00;5.30;;;10.10;99.90;;;;;;5053244;28;20052;-72
2023/03/19 07:44:52;;;;;;;6.57;5.32;;;10.10;99.90;;;;;;5035767;28;20385;-72
2023/03/19 07:47:18;;;;;;;7.32;5.43;;;10.10;99.90;;;;;;5053313;28;20525;-73
2023/03/19 07:49:47;;;;;;;6.93;5.53;;;10.10;99.90;;;;;;5053252;28;20262;-73
2023/03/19 07:52:13;;;;;;;9.48;5.93;;;10.20;99.90;;;;;;5053166;28;20452;-72
2023/03/19 07:54:39;;;;;;;8.82;5.80;;;10.30;99.90;;;;;;5034323;28;20557;-66
2023/03/19 07:57:05;;;;;;;9.27;6.22;;;10.40;99.90;;;;;;5052663;28;20087;-65
2023/03/19 07:59:31;;;;;;;8.68;6.88;;;10.40;99.90;;;;;;5018264;28;20095;-65
2023/03/19 08:01:56;;;;;;;8.07;6.00;;;10.50;99.90;;;;;;5052903;28;20092;-66
2023/03/19 08:04:22;;;;;;;8.98;6.60;;;10.60;99.90;;;;;;5052792;28;20689;-66
2023/03/19 08:06:48;;;;;;;9.48;7.40;;;10.70;99.90;;;;;;5052711;28;20101;-65
2023/03/19 08:09:14;;;;;;;9.70;7.38;;;10.80;99.90;;;;;;5052849;28;20044;-66
2023/03/19 08:11:40;;;;;;;9.85;7.13;;;10.80;99.90;;;;;;5052800;28;20504;-66
2023/03/19 08:14:05;;;;;;;8.52;6.45;;;10.80;99.90;;;;;;5052687;28;20088;-66
2023/03/19 08:16:31;;;;;;;10.20;7.10;;;10.90;99.90;;;;;;5052383;28;20051;-66
2023/03/19 08:18:57;;;;;;;8.93;6.72;;;11.00;99.90;;;;;;5034993;28;20081;-66
2023/03/19 08:21:23;;;;;;;9.85;7.22;;;11.00;99.90;;;;;;5034920;28;20100;-66
2023/03/19 08:23:48;;;;;;;9.48;6.65;;;11.10;99.90;;;;;;5051780;28;20452;-65
2023/03/19 08:26:14;;;;;;;10.23;7.25;;;11.10;99.90;;;;;;5034346;28;20045;-66
2023/03/19 08:28:40;;;;;;;10.38;6.95;;;11.20;99.90;;;;;;5052706;28;20049;-65
2023/03/19 08:31:10;;;;;;;10.85;7.20;;;11.10;99.90;;;;;;5051877;28;20149;-66
2023/03/19 08:33:35;;;;;;;10.85;7.65;;;11.20;99.90;;;;;;5051968;28;20405;-66
2023/03/19 08:36:07;;;;;;;9.75;7.53;;;11.20;99.90;;;;;;5044929;28;20052;-74
2023/03/19 08:38:32;;;;;;;10.38;6.97;;;11.20;99.90;;;;;;5050070;28;20044;-76
2023/03/19 08:41:01;;;;;;;10.32;7.93;;;11.20;99.90;;;;;;5051310;28;20075;-76
2023/03/19 08:43:27;;;;;;;9.35;6.47;;;11.20;99.90;;;;;;5033970;28;20132;-77
2023/03/19 08:45:53;;;;;;;11.02;7.55;;;11.20;99.90;;;;;;5051699;28;20126;-76
2023/03/19 08:48:19;;;;;;;10.32;7.28;;;11.20;99.90;;;;;;5033627;28;20098;-75
2023/03/19 08:50:45;;;;;;;9.77;6.97;;;11.30;99.90;;;;;;5051402;28;20548;-75
2023/03/19 08:53:10;;;;;;;8.90;6.53;;;11.20;99.90;;;;;;5017135;28;20049;-76
2023/03/19 08:55:36;;;;;;;10.23;6.65;;;11.20;99.90;;;;;;5050398;28;20521;-75
2023/03/19 08:58:02;;;;;;;9.48;6.30;;;11.20;99.90;;;;;;5050949;28;20074;-76
2023/03/19 09:00:27;;;;;;;9.48;7.43;;;11.20;99.90;;;;;;5033486;28;20056;-74
2023/03/19 09:02:53;;;;;;;9.02;6.40;;;11.20;99.90;;;;;;5051130;28;20501;-74
2023/03/19 09:05:21;;;;;;;8.55;6.40;;;11.30;99.90;;;;;;5051204;28;20473;-75
2023/03/19 09:07:47;;;;;;;9.32;6.45;;;11.40;99.90;;;;;;5033177;28;20049;-75
2023/03/19 09:10:13;;;;;;;8.75;6.60;;;11.50;99.90;;;;;;5033405;28;20690;-76
2023/03/19 09:12:39;;;;;;;9.73;6.68;;;11.70;99.90;;;;;;5050833;28;20049;-75
2023/03/19 09:15:05;;;;;;;9.55;6.88;;;11.80;99.90;;;;;;5051286;28;20048;-75
2023/03/19 09:17:31;;;;;;;9.13;5.97;;;11.80;99.90;;;;;;5051002;28;20088;-76
2023/03/19 09:19:57;;;;;;;8.50;5.93;;;11.60;99.90;;;;;;5033118;28;20095;-75
2023/03/19 09:22:23;;;;;;;9.23;7.00;;;11.50;99.90;;;;;;5033138;28;20822;-76
2023/03/19 09:24:49;;;;;;;9.40;6.10;;;11.30;99.90;;;;;;5032723;28;20044;-75
2023/03/19 09:27:14;;;;;;;8.73;6.50;;;11.10;99.90;;;;;;5050797;28;20048;-76
2023/03/19 09:29:40;;;;;;;9.85;7.07;;;11.10;99.90;;;;;;5049300;28;20517;-75
2023/03/19 09:32:06;;;;;;;9.10;6.32;;;11.20;99.90;;;;;;5046253;28;20136;-74
2023/03/19 09:34:31;;;;;;;10.48;6.45;;;11.30;99.90;;;;;;5046249;28;20123;-74
2023/03/19 09:36:57;;;;;;;10.80;6.72;;;11.50;99.90;;;;;;5033192;28;20053;-74
2023/03/19 09:39:23;;;;;;;9.30;6.25;;;11.50;99.90;;;;;;5049321;28;20051;-74
2023/03/19 09:42:09;;;;;;;8.43;6.07;;;11.60;99.90;;;;;;5050660;28;20052;-74
2023/03/19 09:44:42;;;;;;;8.25;6.60;;;11.90;99.90;;;;;;5050731;28;20055;-71
2023/03/19 09:47:31;;;;;;;8.18;6.43;;;12.10;99.90;;;;;;5050698;28;20126;-76
2023/03/19 09:50:01;;;;;;;7.18;5.45;;;12.10;99.90;;;;;;5050416;28;20076;-72
2023/03/19 09:52:32;;;;;;;6.22;4.20;;;12.10;99.90;;;;;;5050407;28;20041;-71
2023/03/19 09:55:04;;;;;;;5.55;4.30;;;12.10;99.90;;;;;;5032006;28;20064;-76
2023/03/19 09:57:32;;;;;;;7.43;5.60;;;12.20;99.90;;;;;;5050297;28;20105;-74
2023/03/19 09:59:57;;;;;;;7.28;5.57;;;12.10;99.90;;;;;;5032908;28;20045;-75
2023/03/19 10:02:41;;;;;;;7.90;4.75;;;12.20;99.90;;;;;;5050283;28;20067;-75
2023/03/19 10:05:15;;;;;;;5.78;4.20;;;12.20;99.90;;;;;;5050494;28;20041;-74
2023/03/19 10:08:22;;;;;;;6.93;4.82;;;12.20;99.90;;;;;;5032724;28;20140;-75
2023/03/19 10:10:59;;;;;;;6.30;4.50;;;12.30;99.90;;;;;;5032917;28;20071;-74
2023/03/19 10:13:43;;;;;;;6.90;5.50;;;12.30;99.90;;;;;;5050047;28;20090;-75
2023/03/19 10:16:17;;;;;;;8.35;5.85;;;12.40;99.90;;;;;;5032927;28;20045;-75
2023/03/19 10:18:47;;;;;;;7.25;5.63;;;12.50;99.90;;;;;;5049212;28;20125;-77
2023/03/19 10:21:44;;;;;;;7.78;6.00;;;12.50;99.90;;;;;;5032740;28;20040;-75
2023/03/19 10:24:14;;;;;;;7.53;5.55;;;12.40;99.90;;;;;;5040180;28;20061;-65
2023/03/19 10:26:40;;;;;;;7.88;5.55;;;12.60;99.90;;;;;;5054627;28;20076;-66
2023/03/19 10:29:19;;;;;;;5.78;4.22;;;12.80;99.90;;;;;;5040985;28;20110;-65
2023/03/19 10:31:54;;;;;;;6.40;4.95;;;12.60;99.90;;;;;;5054187;28;20080;-65
2023/03/19 10:34:39;;;;;;;6.35;4.95;;;12.50;99.90;;;;;;5054144;28;20538;-65
2023/03/19 10:37:25;;;;;;;7.40;4.80;;;12.40;99.90;;;;;;5054357;28;20060;-65
2023/03/19 10:39:54;;;;;;;5.95;4.35;;;12.30;99.90;;;;;;5054375;28;20045;-65
2023/03/19 10:42:44;;;;;;;6.60;5.35;;;12.40;99.90;;;;;;5053998;28;20459;-65
2023/03/19 10:45:30;;;;;;;7.25;4.93;;;12.80;99.90;;;;;;5053190;28;20049;-66
2023/03/19 10:47:57;;;;;;;7.47;5.40;;;13.00;99.90;;;;;;5050985;28;20402;-66
2023/03/19 10:50:50;;;;;;;7.13;5.20;;;12.90;99.90;;;;;;5053256;28;20508;-65
2023/03/19 10:53:15;;;;;;;6.75;4.50;;;12.80;99.90;;;;;;5050614;28;20517;-65
2023/03/19 10:55:49;;;;;;;6.22;4.60;;;12.80;99.90;;;;;;5053100;28;20088;-66
2023/03/19 10:58:21;;;;;;;7.75;4.75;;;12.90;99.90;;;;;;5053512;28;20048;-66
2023/03/19 11:00:54;;;;;;;7.53;4.63;;;13.00;99.90;;;;;;5053924;28;20049;-66
2023/03/19 11:03:56;;;;;;;7.47;4.82;;;13.00;99.90;;;;;;5053895;28;20048;-66
2023/03/19 11:06:34;;;;;;;7.15;4.50;;;13.00;99.90;;;;;;5036231;28;20102;-65
2023/03/19 11:09:01;;;;;;;7.43;5.63;;;13.20;99.90;;;;;;5053657;28;20393;-64
2023/03/19 11:11:42;;;;;;;7.15;5.03;;;13.20;99.90;;;;;;5053356;28;20051;-64
2023/03/19 11:14:19;;;;;;;7.88;5.70;;;13.30;99.90;;;;;;5052401;28;20505;-65
2023/03/19 11:16:57;;;;;;;7.68;5.50;;;13.20;99.90;;;;;;5033919;28;20159;-65
2023/03/19 11:19:28;;;;;;;7.22;5.20;;;13.20;99.90;;;;;;5053697;28;20052;-65
2023/03/19 11:22:26;;;;;;;7.03;5.70;;;13.30;99.90;;;;;;5053476;28;20582;-66
2023/03/19 11:25:13;;;;;;;7.72;5.90;;;13.40;99.90;;;;;;5053189;28;20049;-65
2023/03/19 11:27:40;;;;;;;7.93;6.07;;;13.50;99.90;;;;;;5053327;28;20110;-66
2023/03/19 11:30:30;;;;;;;8.07;6.00;;;13.70;99.90;;;;;;5035598;28;20053;-65
2023/03/19 11:33:26;;;;;;;6.55;5.22;;;13.50;99.90;;;;;;5052975;28;20045;-65
2023/03/19 11:36:12;;;;;;;7.25;5.55;;;13.50;99.90;;;;;;5051925;28;20053;-65
2023/03/19 11:38:37;;;;;;;8.63;5.93;;;13.70;99.90;;;;;;5052930;28;20553;-65
2023/03/19 11:41:08;;;;;;;7.65;5.63;;;13.70;99.90;;;;;;5052938;28;20135;-65
2023/03/19 11:43:58;;;;;;;6.75;5.57;;;13.70;99.90;;;;;;5052979;28;20045;-64
2023/03/19 11:46:44;;;;;;;7.35;6.05;;;13.80;99.90;;;;;;5053304;28;20096;-65
2023/03/19 11:49:26;;;;;;;;;;;13.90;99.90;;;;;;5053406;28;20091;-66
2023/03/19 11:52:23;;;;;;;8.10;5.72;;;13.80;99.90;;;;;;5052995;28;19932;-65
2023/03/19 11:55:07;;;;;;;7.93;5.65;;;13.60;99.90;;;;;;5052295;28;20057;-65
2023/03/19 11:58:03;;;;;;;7.30;5.05;;;13.60;99.90;;;;;;5052128;28;20124;-65
2023/03/19 12:00:46;;;;;;;7.90;5.65;;;13.80;99.90;;;;;;5052069;28;20053;-64
2023/03/19 12:03:52;;;;;;;8.57;6.05;;;13.90;99.90;;;;;;5052551;28;20049;-73
2023/03/19 12:06:33;;;;;;;8.98;6.38;;;13.80;99.90;;;;;;5052654;28;20489;-72
2023/03/19 12:09:22;;;;;;;9.88;5.95;;;13.90;99.90;;;;;;5051640;28;20060;-73
2023/03/19 12:11:57;;;;;;;7.70;5.60;;;14.00;99.90;;;;;;5034954;28;20409;-73
2023/03/19 12:14:51;;;;;;;7.55;5.50;;;14.20;99.90;;;;;;5034648;28;20511;-72
2023/03/19 12:17:25;;;;;;;7.07;5.53;;;14.20;99.90;;;;;;5034734;28;20199;-72
2023/03/19 12:20:28;;;;;;;7.00;5.28;;;14.20;99.90;;;;;;5034560;28;20048;-72
2023/03/19 12:23:23;;;;;;;8.05;5.47;;;14.50;99.90;;;;;;5052053;28;20056;-72
2023/03/19 12:26:03;;;;;;;6.72;5.15;;;14.60;99.90;;;;;;5051882;28;20057;-73
2023/03/19 12:28:32;;;;;;;6.93;5.82;;;14.60;99.90;;;;;;5052496;28;20045;-72
2023/03/19 12:31:30;;;;;;;6.43;5.20;;;14.50;99.90;;;;;;5034575;28;20491;-72
2023/03/19 12:34:12;;;;;;;7.70;5.78;;;14.50;99.90;;;;;;5024895;28;20067;-72
2023/03/19 12:36:48;;;;;;;6.57;5.15;;;14.60;99.90;;;;;;5018206;28;20053;-73
2023/03/19 12:39:19;;;;;;;7.63;5.78;;;14.70;99.90;;;;;;5034460;28;20097;-73
2023/03/19 12:41:47;;;;;;;7.32;5.25;;;14.80;99.90;;;;;;5051747;28;20554;-73
2023/03/19 12:44:35;;;;;;;9.27;5.40;;;15.10;99.90;;;;;;5051996;28;20048;-72
2023/03/19 12:47:13;;;;;;;7.03;5.53;;;15.20;99.90;;;;;;5051688;28;20060;-72
2023/03/19 12:49:51;;;;;;;7.25;5.80;;;14.90;99.90;;;;;;5033137;28;20056;-73
2023/03/19 12:52:38;;;;;;;8.27;5.35;;;15.10;99.90;;;;;;5034044;28;20052;-72
2023/03/19 12:55:20;;;;;;;8.02;4.97;;;15.40;99.90;;;;;;5050653;28;20140;-74
2023/03/19 12:57:56;;;;;;;7.50;5.50;;;15.80;99.90;;;;;;5051588;28;20148;-73